sensor_id;sensor_type;location;lat;lon;timestamp;P1;durP1;ratioP1;P2;durP2;ratioP2
52854;SDS011;38719;51.418;7.286;2022-12-07T00:01:59;35.55;;;18.70;;
52854;SDS011;38719;51.418;7.286;2022-12-07T00:04:28;31.95;;;17.15;;
52854;SDS011;38719;51.418;7.286;2022-12-07T00:06:55;31.33;;;17.23;;
52854;SDS011;38719;51.418;7.286;2022-12-07T00:09:23;34.85;;;17.80;;
52854;SDS011;38719;51.418;7.286;2022-12-07T00:11:51;31.30;;;18.50;;
52854;SDS011;38719;51.418;7.286;2022-12-07T00:14:19;32.78;;;17.48;;
52854;SDS011;38719;51.418;7.286;2022-12-07T00:16:48;31.80;;;18.00;;
52854;SDS011;38719;51.418;7.286;2022-12-07T00:19:16;35.92;;;18.92;;
52854;SDS011;38719;51.418;7.286;2022-12-07T00:21:45;31.73;;;18.45;;
52854;SDS011;38719;51.418;7.286;2022-12-07T00:24:13;28.58;;;16.73;;
52854;SDS011;38719;51.418;7.286;2022-12-07T00:26:40;28.25;;;16.05;;
52854;SDS011;38719;51.418;7.286;2022-12-07T00:29:11;37.88;;;18.35;;
52854;SDS011;38719;51.418;7.286;2022-12-07T00:31:41;33.42;;;17.25;;
52854;SDS011;38719;51.418;7.286;2022-12-07T00:34:11;32.05;;;17.88;;
52854;SDS011;38719;51.418;7.286;2022-12-07T00:36:40;32.40;;;17.23;;
52854;SDS011;38719;51.418;7.286;2022-12-07T00:39:09;28.48;;;17.88;;
52854;SDS011;38719;51.418;7.286;2022-12-07T00:41:36;32.30;;;17.67;;
52854;SDS011;38719;51.418;7.286;2022-12-07T00:44:04;29.08;;;16.83;;
52854;SDS011;38719;51.418;7.286;2022-12-07T00:46:31;31.40;;;16.20;;
52854;SDS011;38719;51.418;7.286;2022-12-07T00:48:59;29.73;;;17.08;;
52854;SDS011;38719;51.418;7.286;2022-12-07T00:51:26;33.20;;;17.42;;
52854;SDS011;38719;51.418;7.286;2022-12-07T00:53:54;34.42;;;16.75;;
52854;SDS011;38719;51.418;7.286;2022-12-07T00:56:24;32.47;;;17.48;;
52854;SDS011;38719;51.418;7.286;2022-12-07T00:58:53;35.67;;;17.55;;
52854;SDS011;38719;51.418;7.286;2022-12-07T01:01:22;32.25;;;16.85;;
52854;SDS011;38719;51.418;7.286;2022-12-07T01:03:51;33.22;;;17.92;;
52854;SDS011;38719;51.418;7.286;2022-12-07T01:06:19;34.60;;;18.27;;
52854;SDS011;38719;51.418;7.286;2022-12-07T01:08:48;33.60;;;18.63;;
52854;SDS011;38719;51.418;7.286;2022-12-07T01:11:16;32.03;;;17.77;;
52854;SDS011;38719;51.418;7.286;2022-12-07T01:13:46;34.95;;;18.05;;
52854;SDS011;38719;51.418;7.286;2022-12-07T01:16:16;33.38;;;18.15;;
52854;SDS011;38719;51.418;7.286;2022-12-07T01:18:45;35.50;;;19.98;;
52854;SDS011;38719;51.418;7.286;2022-12-07T01:21:15;32.40;;;19.15;;
52854;SDS011;38719;51.418;7.286;2022-12-07T01:23:44;34.40;;;20.00;;
52854;SDS011;38719;51.418;7.286;2022-12-07T01:26:12;36.25;;;19.95;;
52854;SDS011;38719;51.418;7.286;2022-12-07T01:28:42;39.92;;;20.98;;
52854;SDS011;38719;51.418;7.286;2022-12-07T01:31:12;35.80;;;19.45;;
52854;SDS011;38719;51.418;7.286;2022-12-07T01:33:42;37.63;;;19.83;;
52854;SDS011;38719;51.418;7.286;2022-12-07T01:36:13;35.33;;;19.73;;
52854;SDS011;38719;51.418;7.286;2022-12-07T01:38:41;37.90;;;20.80;;
52854;SDS011;38719;51.418;7.286;2022-12-07T01:41:09;36.97;;;19.75;;
52854;SDS011;38719;51.418;7.286;2022-12-07T01:44:06;39.58;;;21.20;;
52854;SDS011;38719;51.418;7.286;2022-12-07T01:46:39;36.75;;;20.15;;
52854;SDS011;38719;51.418;7.286;2022-12-07T01:49:08;43.13;;;21.75;;
52854;SDS011;38719;51.418;7.286;2022-12-07T01:51:40;41.65;;;21.05;;
52854;SDS011;38719;51.418;7.286;2022-12-07T01:54:09;45.72;;;21.05;;
52854;SDS011;38719;51.418;7.286;2022-12-07T01:56:38;41.72;;;20.20;;
52854;SDS011;38719;51.418;7.286;2022-12-07T01:59:09;45.70;;;21.15;;
52854;SDS011;38719;51.418;7.286;2022-12-07T02:01:38;41.45;;;20.50;;
52854;SDS011;38719;51.418;7.286;2022-12-07T02:04:06;43.15;;;21.13;;
52854;SDS011;38719;51.418;7.286;2022-12-07T02:06:33;42.22;;;21.08;;
52854;SDS011;38719;51.418;7.286;2022-12-07T02:09:03;50.65;;;23.20;;
52854;SDS011;38719;51.418;7.286;2022-12-07T02:11:31;48.00;;;22.45;;
52854;SDS011;38719;51.418;7.286;2022-12-07T02:13:58;46.88;;;21.92;;
52854;SDS011;38719;51.418;7.286;2022-12-07T02:16:28;43.67;;;20.77;;
52854;SDS011;38719;51.418;7.286;2022-12-07T02:19:07;40.17;;;21.73;;
52854;SDS011;38719;51.418;7.286;2022-12-07T02:21:51;39.60;;;20.90;;
52854;SDS011;38719;51.418;7.286;2022-12-07T02:24:35;43.00;;;21.63;;
52854;SDS011;38719;51.418;7.286;2022-12-07T02:30:06;40.60;;;21.88;;
52854;SDS011;38719;51.418;7.286;2022-12-07T02:32:39;46.03;;;21.73;;
52854;SDS011;38719;51.418;7.286;2022-12-07T02:35:11;42.10;;;21.65;;
52854;SDS011;38719;51.418;7.286;2022-12-07T02:37:47;44.72;;;22.48;;
52854;SDS011;38719;51.418;7.286;2022-12-07T02:40:22;39.90;;;21.45;;
52854;SDS011;38719;51.418;7.286;2022-12-07T02:42:56;41.85;;;21.00;;
52854;SDS011;38719;51.418;7.286;2022-12-07T02:45:30;44.58;;;22.67;;
52854;SDS011;38719;51.418;7.286;2022-12-07T02:47:59;46.88;;;22.25;;
52854;SDS011;38719;51.418;7.286;2022-12-07T02:50:27;41.83;;;20.65;;
52854;SDS011;38719;51.418;7.286;2022-12-07T02:52:55;49.22;;;22.42;;
52854;SDS011;38719;51.418;7.286;2022-12-07T02:55:24;42.85;;;21.05;;
52854;SDS011;38719;51.418;7.286;2022-12-07T02:58:05;39.75;;;21.30;;
52854;SDS011;38719;51.418;7.286;2022-12-07T03:00:52;43.13;;;20.63;;
52854;SDS011;38719;51.418;7.286;2022-12-07T03:03:28;43.30;;;22.10;;
52854;SDS011;38719;51.418;7.286;2022-12-07T03:05:59;45.17;;;22.52;;
52854;SDS011;38719;51.418;7.286;2022-12-07T03:08:39;42.40;;;22.00;;
52854;SDS011;38719;51.418;7.286;2022-12-07T03:11:14;50.20;;;22.08;;
52854;SDS011;38719;51.418;7.286;2022-12-07T03:13:48;43.92;;;23.42;;
52854;SDS011;38719;51.418;7.286;2022-12-07T03:16:21;41.25;;;21.83;;
52854;SDS011;38719;51.418;7.286;2022-12-07T03:18:53;44.22;;;22.83;;
52854;SDS011;38719;51.418;7.286;2022-12-07T03:21:25;39.15;;;21.10;;
52854;SDS011;38719;51.418;7.286;2022-12-07T03:23:56;43.50;;;21.00;;
52854;SDS011;38719;51.418;7.286;2022-12-07T03:26:27;47.70;;;21.63;;
52854;SDS011;38719;51.418;7.286;2022-12-07T03:28:59;50.15;;;22.17;;
52854;SDS011;38719;51.418;7.286;2022-12-07T03:31:34;43.70;;;22.38;;
52854;SDS011;38719;51.418;7.286;2022-12-07T03:34:06;38.90;;;20.52;;
52854;SDS011;38719;51.418;7.286;2022-12-07T03:36:39;42.88;;;20.52;;
52854;SDS011;38719;51.418;7.286;2022-12-07T03:39:13;46.97;;;21.85;;
52854;SDS011;38719;51.418;7.286;2022-12-07T03:41:48;41.42;;;21.73;;
52854;SDS011;38719;51.418;7.286;2022-12-07T03:44:17;37.83;;;19.77;;
52854;SDS011;38719;51.418;7.286;2022-12-07T03:46:48;45.15;;;21.50;;
52854;SDS011;38719;51.418;7.286;2022-12-07T03:49:26;46.10;;;20.88;;
52854;SDS011;38719;51.418;7.286;2022-12-07T03:52:00;43.05;;;20.55;;
52854;SDS011;38719;51.418;7.286;2022-12-07T03:54:34;41.65;;;18.58;;
52854;SDS011;38719;51.418;7.286;2022-12-07T03:57:06;39.28;;;18.48;;
52854;SDS011;38719;51.418;7.286;2022-12-07T03:59:35;40.13;;;19.95;;
52854;SDS011;38719;51.418;7.286;2022-12-07T04:02:06;42.95;;;20.27;;
52854;SDS011;38719;51.418;7.286;2022-12-07T04:04:35;36.28;;;19.77;;
52854;SDS011;38719;51.418;7.286;2022-12-07T04:07:02;36.45;;;19.45;;
52854;SDS011;38719;51.418;7.286;2022-12-07T04:09:30;42.78;;;20.25;;
52854;SDS011;38719;51.418;7.286;2022-12-07T04:11:57;36.13;;;18.83;;
52854;SDS011;38719;51.418;7.286;2022-12-07T04:14:25;38.42;;;18.52;;
52854;SDS011;38719;51.418;7.286;2022-12-07T04:16:53;35.95;;;18.23;;
52854;SDS011;38719;51.418;7.286;2022-12-07T04:19:25;36.08;;;19.40;;
52854;SDS011;38719;51.418;7.286;2022-12-07T04:21:53;36.97;;;19.58;;
52854;SDS011;38719;51.418;7.286;2022-12-07T04:24:21;40.88;;;20.40;;
52854;SDS011;38719;51.418;7.286;2022-12-07T04:26:49;44.58;;;19.55;;
52854;SDS011;38719;51.418;7.286;2022-12-07T04:29:17;39.05;;;19.70;;
52854;SDS011;38719;51.418;7.286;2022-12-07T04:31:45;41.20;;;19.20;;
52854;SDS011;38719;51.418;7.286;2022-12-07T04:34:13;42.72;;;19.17;;
52854;SDS011;38719;51.418;7.286;2022-12-07T04:36:43;41.97;;;20.08;;
52854;SDS011;38719;51.418;7.286;2022-12-07T04:39:13;46.47;;;19.88;;
52854;SDS011;38719;51.418;7.286;2022-12-07T04:41:45;40.28;;;19.13;;
52854;SDS011;38719;51.418;7.286;2022-12-07T04:44:13;38.47;;;20.85;;
52854;SDS011;38719;51.418;7.286;2022-12-07T04:46:41;39.60;;;19.50;;
52854;SDS011;38719;51.418;7.286;2022-12-07T04:49:10;43.05;;;18.42;;
52854;SDS011;38719;51.418;7.286;2022-12-07T04:51:38;34.40;;;18.13;;
52854;SDS011;38719;51.418;7.286;2022-12-07T04:54:07;40.85;;;16.92;;
52854;SDS011;38719;51.418;7.286;2022-12-07T04:56:35;39.75;;;18.83;;
52854;SDS011;38719;51.418;7.286;2022-12-07T04:59:03;43.85;;;18.33;;
52854;SDS011;38719;51.418;7.286;2022-12-07T05:01:31;43.03;;;19.10;;
52854;SDS011;38719;51.418;7.286;2022-12-07T05:03:59;37.40;;;18.17;;
52854;SDS011;38719;51.418;7.286;2022-12-07T05:06:27;43.88;;;19.02;;
52854;SDS011;38719;51.418;7.286;2022-12-07T05:08:54;43.40;;;19.60;;
52854;SDS011;38719;51.418;7.286;2022-12-07T05:11:23;42.15;;;18.40;;
52854;SDS011;38719;51.418;7.286;2022-12-07T05:14:07;43.28;;;19.05;;
52854;SDS011;38719;51.418;7.286;2022-12-07T05:16:38;42.10;;;18.00;;
52854;SDS011;38719;51.418;7.286;2022-12-07T05:19:06;43.50;;;18.45;;
52854;SDS011;38719;51.418;7.286;2022-12-07T05:21:34;36.33;;;18.15;;
52854;SDS011;38719;51.418;7.286;2022-12-07T05:24:02;40.15;;;17.77;;
52854;SDS011;38719;51.418;7.286;2022-12-07T05:26:32;38.95;;;17.50;;
52854;SDS011;38719;51.418;7.286;2022-12-07T05:29:00;34.85;;;16.95;;
52854;SDS011;38719;51.418;7.286;2022-12-07T05:31:28;43.83;;;19.42;;
52854;SDS011;38719;51.418;7.286;2022-12-07T05:33:55;37.38;;;17.98;;
52854;SDS011;38719;51.418;7.286;2022-12-07T05:36:23;37.15;;;17.90;;
52854;SDS011;38719;51.418;7.286;2022-12-07T05:38:51;34.67;;;17.63;;
52854;SDS011;38719;51.418;7.286;2022-12-07T05:41:19;34.78;;;17.55;;
52854;SDS011;38719;51.418;7.286;2022-12-07T05:44:06;39.15;;;18.55;;
52854;SDS011;38719;51.418;7.286;2022-12-07T05:46:33;32.13;;;16.52;;
52854;SDS011;38719;51.418;7.286;2022-12-07T05:49:01;32.38;;;17.20;;
52854;SDS011;38719;51.418;7.286;2022-12-07T05:51:29;40.60;;;16.55;;
52854;SDS011;38719;51.418;7.286;2022-12-07T05:53:56;34.90;;;16.67;;
52854;SDS011;38719;51.418;7.286;2022-12-07T05:56:24;37.97;;;18.30;;
52854;SDS011;38719;51.418;7.286;2022-12-07T05:58:52;31.83;;;16.58;;
52854;SDS011;38719;51.418;7.286;2022-12-07T06:01:39;40.25;;;15.88;;
52854;SDS011;38719;51.418;7.286;2022-12-07T06:04:07;34.75;;;16.77;;
52854;SDS011;38719;51.418;7.286;2022-12-07T06:06:35;35.20;;;17.15;;
52854;SDS011;38719;51.418;7.286;2022-12-07T06:09:02;33.92;;;17.40;;
52854;SDS011;38719;51.418;7.286;2022-12-07T06:11:30;35.25;;;17.10;;
52854;SDS011;38719;51.418;7.286;2022-12-07T06:14:15;32.08;;;16.05;;
52854;SDS011;38719;51.418;7.286;2022-12-07T06:16:44;33.65;;;16.65;;
52854;SDS011;38719;51.418;7.286;2022-12-07T06:19:11;35.38;;;17.02;;
52854;SDS011;38719;51.418;7.286;2022-12-07T06:21:39;33.47;;;16.60;;
52854;SDS011;38719;51.418;7.286;2022-12-07T06:24:07;35.75;;;16.83;;
52854;SDS011;38719;51.418;7.286;2022-12-07T06:26:36;37.03;;;16.75;;
52854;SDS011;38719;51.418;7.286;2022-12-07T06:29:03;40.05;;;17.77;;
52854;SDS011;38719;51.418;7.286;2022-12-07T06:31:31;30.15;;;16.27;;
52854;SDS011;38719;51.418;7.286;2022-12-07T06:34:00;40.35;;;16.23;;
52854;SDS011;38719;51.418;7.286;2022-12-07T06:36:29;30.15;;;17.27;;
52854;SDS011;38719;51.418;7.286;2022-12-07T06:38:57;30.25;;;16.67;;
52854;SDS011;38719;51.418;7.286;2022-12-07T06:41:24;33.58;;;16.55;;
52854;SDS011;38719;51.418;7.286;2022-12-07T06:43:52;29.33;;;15.88;;
52854;SDS011;38719;51.418;7.286;2022-12-07T06:46:22;29.27;;;15.98;;
52854;SDS011;38719;51.418;7.286;2022-12-07T06:48:50;33.78;;;16.40;;
52854;SDS011;38719;51.418;7.286;2022-12-07T06:51:19;29.10;;;15.68;;
52854;SDS011;38719;51.418;7.286;2022-12-07T06:53:46;30.25;;;14.52;;
52854;SDS011;38719;51.418;7.286;2022-12-07T06:56:14;38.10;;;15.48;;
52854;SDS011;38719;51.418;7.286;2022-12-07T06:58:42;28.05;;;15.10;;
52854;SDS011;38719;51.418;7.286;2022-12-07T07:01:10;33.28;;;15.07;;
52854;SDS011;38719;51.418;7.286;2022-12-07T07:03:38;29.15;;;14.52;;
52854;SDS011;38719;51.418;7.286;2022-12-07T07:06:05;24.63;;;14.07;;
52854;SDS011;38719;51.418;7.286;2022-12-07T07:08:35;32.22;;;14.35;;
52854;SDS011;38719;51.418;7.286;2022-12-07T07:11:04;26.85;;;13.68;;
52854;SDS011;38719;51.418;7.286;2022-12-07T07:13:32;27.02;;;11.90;;
52854;SDS011;38719;51.418;7.286;2022-12-07T07:16:00;23.27;;;13.20;;
52854;SDS011;38719;51.418;7.286;2022-12-07T07:18:28;20.63;;;11.45;;
52854;SDS011;38719;51.418;7.286;2022-12-07T07:20:55;25.63;;;13.25;;
52854;SDS011;38719;51.418;7.286;2022-12-07T07:23:23;27.00;;;13.25;;
52854;SDS011;38719;51.418;7.286;2022-12-07T07:25:52;35.65;;;13.10;;
52854;SDS011;38719;51.418;7.286;2022-12-07T07:28:20;23.45;;;12.55;;
52854;SDS011;38719;51.418;7.286;2022-12-07T07:30:47;29.13;;;12.93;;
52854;SDS011;38719;51.418;7.286;2022-12-07T07:33:15;26.40;;;11.60;;
52854;SDS011;38719;51.418;7.286;2022-12-07T07:35:42;19.92;;;11.25;;
52854;SDS011;38719;51.418;7.286;2022-12-07T07:38:10;26.35;;;12.65;;
52854;SDS011;38719;51.418;7.286;2022-12-07T07:40:37;23.27;;;12.35;;
52854;SDS011;38719;51.418;7.286;2022-12-07T07:43:06;28.50;;;12.80;;
52854;SDS011;38719;51.418;7.286;2022-12-07T07:45:34;28.70;;;13.20;;
52854;SDS011;38719;51.418;7.286;2022-12-07T07:48:01;20.50;;;11.55;;
52854;SDS011;38719;51.418;7.286;2022-12-07T07:50:29;28.10;;;13.35;;
52854;SDS011;38719;51.418;7.286;2022-12-07T07:52:56;22.58;;;12.18;;
52854;SDS011;38719;51.418;7.286;2022-12-07T07:55:24;23.35;;;11.43;;
52854;SDS011;38719;51.418;7.286;2022-12-07T07:57:52;20.30;;;10.90;;
52854;SDS011;38719;51.418;7.286;2022-12-07T08:00:22;28.20;;;11.20;;
52854;SDS011;38719;51.418;7.286;2022-12-07T08:02:49;22.50;;;11.85;;
52854;SDS011;38719;51.418;7.286;2022-12-07T08:05:17;19.55;;;11.30;;
52854;SDS011;38719;51.418;7.286;2022-12-07T08:07:45;19.52;;;10.60;;
52854;SDS011;38719;51.418;7.286;2022-12-07T08:10:13;22.58;;;9.90;;
52854;SDS011;38719;51.418;7.286;2022-12-07T08:12:41;16.13;;;10.18;;
52854;SDS011;38719;51.418;7.286;2022-12-07T08:15:29;24.38;;;11.25;;
52854;SDS011;38719;51.418;7.286;2022-12-07T08:17:58;19.63;;;10.10;;
52854;SDS011;38719;51.418;7.286;2022-12-07T08:20:25;22.98;;;10.27;;
52854;SDS011;38719;51.418;7.286;2022-12-07T08:22:53;18.05;;;10.68;;
52854;SDS011;38719;51.418;7.286;2022-12-07T08:25:21;24.88;;;10.95;;
52854;SDS011;38719;51.418;7.286;2022-12-07T08:27:49;18.50;;;9.82;;
52854;SDS011;38719;51.418;7.286;2022-12-07T08:30:18;16.50;;;10.07;;
52854;SDS011;38719;51.418;7.286;2022-12-07T08:32:48;24.50;;;10.38;;
52854;SDS011;38719;51.418;7.286;2022-12-07T08:35:16;22.33;;;10.82;;
52854;SDS011;38719;51.418;7.286;2022-12-07T08:37:44;18.35;;;10.85;;
52854;SDS011;38719;51.418;7.286;2022-12-07T08:40:12;19.58;;;10.70;;
52854;SDS011;38719;51.418;7.286;2022-12-07T08:42:42;19.80;;;10.90;;
52854;SDS011;38719;51.418;7.286;2022-12-07T08:45:11;21.05;;;10.95;;
52854;SDS011;38719;51.418;7.286;2022-12-07T08:47:41;16.85;;;10.68;;
52854;SDS011;38719;51.418;7.286;2022-12-07T08:50:14;17.65;;;10.13;;
52854;SDS011;38719;51.418;7.286;2022-12-07T08:52:41;17.65;;;10.43;;
52854;SDS011;38719;51.418;7.286;2022-12-07T08:55:10;23.58;;;9.65;;
52854;SDS011;38719;51.418;7.286;2022-12-07T08:57:39;23.35;;;9.75;;
52854;SDS011;38719;51.418;7.286;2022-12-07T09:00:09;18.42;;;9.93;;
52854;SDS011;38719;51.418;7.286;2022-12-07T09:02:37;21.05;;;10.57;;
52854;SDS011;38719;51.418;7.286;2022-12-07T09:05:05;21.52;;;10.55;;
52854;SDS011;38719;51.418;7.286;2022-12-07T09:07:43;21.15;;;10.13;;
52854;SDS011;38719;51.418;7.286;2022-12-07T09:10:13;15.23;;;9.05;;
52854;SDS011;38719;51.418;7.286;2022-12-07T09:12:40;17.15;;;9.40;;
52854;SDS011;38719;51.418;7.286;2022-12-07T09:15:08;16.83;;;9.45;;
52854;SDS011;38719;51.418;7.286;2022-12-07T09:17:36;22.92;;;9.82;;
52854;SDS011;38719;51.418;7.286;2022-12-07T09:20:04;13.63;;;8.45;;
52854;SDS011;38719;51.418;7.286;2022-12-07T09:22:33;14.32;;;8.93;;
52854;SDS011;38719;51.418;7.286;2022-12-07T09:25:02;19.88;;;8.85;;
52854;SDS011;38719;51.418;7.286;2022-12-07T09:27:31;20.42;;;9.18;;
52854;SDS011;38719;51.418;7.286;2022-12-07T09:29:58;16.77;;;9.02;;
52854;SDS011;38719;51.418;7.286;2022-12-07T09:32:27;16.20;;;8.60;;
52854;SDS011;38719;51.418;7.286;2022-12-07T09:34:54;17.73;;;9.95;;
52854;SDS011;38719;51.418;7.286;2022-12-07T09:37:22;17.42;;;9.07;;
52854;SDS011;38719;51.418;7.286;2022-12-07T09:39:49;19.05;;;9.85;;
52854;SDS011;38719;51.418;7.286;2022-12-07T09:42:23;18.23;;;10.90;;
52854;SDS011;38719;51.418;7.286;2022-12-07T09:44:56;25.55;;;11.27;;
52854;SDS011;38719;51.418;7.286;2022-12-07T09:47:25;23.52;;;12.05;;
52854;SDS011;38719;51.418;7.286;2022-12-07T09:49:53;24.95;;;12.10;;
52854;SDS011;38719;51.418;7.286;2022-12-07T09:52:27;24.50;;;12.05;;
52854;SDS011;38719;51.418;7.286;2022-12-07T09:55:08;26.65;;;12.90;;
52854;SDS011;38719;51.418;7.286;2022-12-07T09:57:39;26.70;;;13.25;;
52854;SDS011;38719;51.418;7.286;2022-12-07T10:00:10;25.38;;;11.75;;
52854;SDS011;38719;51.418;7.286;2022-12-07T10:02:40;21.38;;;12.13;;
52854;SDS011;38719;51.418;7.286;2022-12-07T10:05:12;22.67;;;12.32;;
52854;SDS011;38719;51.418;7.286;2022-12-07T10:07:49;24.15;;;11.90;;
52854;SDS011;38719;51.418;7.286;2022-12-07T10:10:17;26.55;;;12.95;;
52854;SDS011;38719;51.418;7.286;2022-12-07T10:12:54;23.70;;;12.05;;
52854;SDS011;38719;51.418;7.286;2022-12-07T10:15:37;28.23;;;14.02;;
52854;SDS011;38719;51.418;7.286;2022-12-07T10:18:19;24.50;;;11.88;;
52854;SDS011;38719;51.418;7.286;2022-12-07T10:21:01;23.83;;;11.47;;
52854;SDS011;38719;51.418;7.286;2022-12-07T10:23:33;25.95;;;11.07;;
52854;SDS011;38719;51.418;7.286;2022-12-07T10:26:16;20.70;;;11.00;;
52854;SDS011;38719;51.418;7.286;2022-12-07T10:28:49;21.02;;;10.52;;
52854;SDS011;38719;51.418;7.286;2022-12-07T10:31:18;24.23;;;10.70;;
52854;SDS011;38719;51.418;7.286;2022-12-07T10:33:50;22.52;;;10.52;;
52854;SDS011;38719;51.418;7.286;2022-12-07T10:36:21;18.50;;;9.63;;
52854;SDS011;38719;51.418;7.286;2022-12-07T10:38:52;17.10;;;9.07;;
52854;SDS011;38719;51.418;7.286;2022-12-07T10:41:25;22.50;;;10.53;;
52854;SDS011;38719;51.418;7.286;2022-12-07T10:43:55;17.83;;;9.25;;
52854;SDS011;38719;51.418;7.286;2022-12-07T10:46:31;19.90;;;10.18;;
52854;SDS011;38719;51.418;7.286;2022-12-07T10:49:21;20.30;;;9.35;;
52854;SDS011;38719;51.418;7.286;2022-12-07T10:52:07;17.75;;;8.60;;
52854;SDS011;38719;51.418;7.286;2022-12-07T10:54:44;14.63;;;8.25;;
52854;SDS011;38719;51.418;7.286;2022-12-07T10:57:21;19.48;;;8.43;;
52854;SDS011;38719;51.418;7.286;2022-12-07T11:00:09;16.40;;;8.38;;
52854;SDS011;38719;51.418;7.286;2022-12-07T11:02:55;14.13;;;7.72;;
52854;SDS011;38719;51.418;7.286;2022-12-07T11:05:38;16.05;;;7.78;;
52854;SDS011;38719;51.418;7.286;2022-12-07T11:08:11;18.17;;;7.80;;
52854;SDS011;38719;51.418;7.286;2022-12-07T11:10:47;30.92;;;15.98;;
52854;SDS011;38719;51.418;7.286;2022-12-07T11:13:23;16.40;;;6.90;;
52854;SDS011;38719;51.418;7.286;2022-12-07T11:16:01;17.58;;;7.43;;
52854;SDS011;38719;51.418;7.286;2022-12-07T11:18:36;14.77;;;7.05;;
52854;SDS011;38719;51.418;7.286;2022-12-07T11:21:17;12.98;;;7.13;;
52854;SDS011;38719;51.418;7.286;2022-12-07T11:23:53;10.30;;;6.50;;
52854;SDS011;38719;51.418;7.286;2022-12-07T11:26:32;10.20;;;6.13;;
52854;SDS011;38719;51.418;7.286;2022-12-07T11:29:13;12.73;;;6.20;;
52854;SDS011;38719;51.418;7.286;2022-12-07T11:31:57;14.00;;;6.00;;
52854;SDS011;38719;51.418;7.286;2022-12-07T11:34:29;15.40;;;5.82;;
52854;SDS011;38719;51.418;7.286;2022-12-07T11:37:10;14.68;;;6.47;;
52854;SDS011;38719;51.418;7.286;2022-12-07T11:39:44;13.23;;;6.63;;
52854;SDS011;38719;51.418;7.286;2022-12-07T11:42:20;14.00;;;6.80;;
52854;SDS011;38719;51.418;7.286;2022-12-07T11:44:50;12.43;;;7.38;;
52854;SDS011;38719;51.418;7.286;2022-12-07T11:47:25;11.07;;;6.55;;
52854;SDS011;38719;51.418;7.286;2022-12-07T11:50:05;11.25;;;6.47;;
52854;SDS011;38719;51.418;7.286;2022-12-07T11:52:51;13.10;;;6.88;;
52854;SDS011;38719;51.418;7.286;2022-12-07T11:55:24;13.73;;;6.82;;
52854;SDS011;38719;51.418;7.286;2022-12-07T11:57:58;12.73;;;7.80;;
52854;SDS011;38719;51.418;7.286;2022-12-07T12:00:31;15.93;;;7.30;;
52854;SDS011;38719;51.418;7.286;2022-12-07T12:03:05;17.45;;;7.80;;
52854;SDS011;38719;51.418;7.286;2022-12-07T12:05:40;11.82;;;7.25;;
52854;SDS011;38719;51.418;7.286;2022-12-07T12:08:11;13.13;;;8.15;;
52854;SDS011;38719;51.418;7.286;2022-12-07T12:11:08;15.30;;;8.98;;
52854;SDS011;38719;51.418;7.286;2022-12-07T12:13:54;17.60;;;8.85;;
52854;SDS011;38719;51.418;7.286;2022-12-07T12:20:01;15.80;;;8.32;;
52854;SDS011;38719;51.418;7.286;2022-12-07T12:22:35;16.58;;;8.55;;
52854;SDS011;38719;51.418;7.286;2022-12-07T12:25:19;21.38;;;8.48;;
52854;SDS011;38719;51.418;7.286;2022-12-07T12:27:50;18.77;;;8.82;;
52854;SDS011;38719;51.418;7.286;2022-12-07T12:30:31;13.88;;;7.38;;
52854;SDS011;38719;51.418;7.286;2022-12-07T12:33:03;16.90;;;7.97;;
52854;SDS011;38719;51.418;7.286;2022-12-07T12:35:34;14.82;;;8.15;;
52854;SDS011;38719;51.418;7.286;2022-12-07T12:41:13;15.35;;;6.97;;
52854;SDS011;38719;51.418;7.286;2022-12-07T12:47:52;12.35;;;7.90;;
52854;SDS011;38719;51.418;7.286;2022-12-07T12:50:22;20.10;;;7.70;;
52854;SDS011;38719;51.418;7.286;2022-12-07T12:52:58;11.70;;;6.18;;
52854;SDS011;38719;51.418;7.286;2022-12-07T12:55:57;12.63;;;5.95;;
52854;SDS011;38719;51.418;7.286;2022-12-07T12:58:39;10.85;;;5.70;;
52854;SDS011;38719;51.418;7.286;2022-12-07T13:04:14;12.07;;;5.30;;
52854;SDS011;38719;51.418;7.286;2022-12-07T13:06:59;12.38;;;5.57;;
52854;SDS011;38719;51.418;7.286;2022-12-07T13:09:28;8.73;;;4.43;;
52854;SDS011;38719;51.418;7.286;2022-12-07T13:12:01;9.80;;;4.72;;
52854;SDS011;38719;51.418;7.286;2022-12-07T13:14:51;12.23;;;5.68;;
52854;SDS011;38719;51.418;7.286;2022-12-07T13:23:21;11.40;;;5.60;;
52854;SDS011;38719;51.418;7.286;2022-12-07T13:25:55;15.35;;;5.78;;
52854;SDS011;38719;51.418;7.286;2022-12-07T13:28:32;12.55;;;5.15;;
52854;SDS011;38719;51.418;7.286;2022-12-07T13:31:14;10.77;;;4.78;;
52854;SDS011;38719;51.418;7.286;2022-12-07T13:36:59;11.25;;;5.47;;
52854;SDS011;38719;51.418;7.286;2022-12-07T13:39:28;21.25;;;6.07;;
52854;SDS011;38719;51.418;7.286;2022-12-07T13:41:58;14.98;;;7.22;;
52854;SDS011;38719;51.418;7.286;2022-12-07T13:44:26;8.00;;;5.90;;
52854;SDS011;38719;51.418;7.286;2022-12-07T13:46:59;8.77;;;3.80;;
52854;SDS011;38719;51.418;7.286;2022-12-07T13:49:37;9.07;;;4.40;;
52854;SDS011;38719;51.418;7.286;2022-12-07T13:52:13;15.23;;;4.43;;
52854;SDS011;38719;51.418;7.286;2022-12-07T13:54:43;9.07;;;4.65;;
52854;SDS011;38719;51.418;7.286;2022-12-07T13:57:13;7.97;;;4.28;;
52854;SDS011;38719;51.418;7.286;2022-12-07T13:59:41;6.45;;;4.07;;
52854;SDS011;38719;51.418;7.286;2022-12-07T14:02:20;7.47;;;4.10;;
52854;SDS011;38719;51.418;7.286;2022-12-07T14:05:06;12.15;;;4.05;;
52854;SDS011;38719;51.418;7.286;2022-12-07T14:07:47;5.85;;;3.95;;
52854;SDS011;38719;51.418;7.286;2022-12-07T14:10:23;10.27;;;4.80;;
52854;SDS011;38719;51.418;7.286;2022-12-07T14:12:53;14.90;;;4.18;;
52854;SDS011;38719;51.418;7.286;2022-12-07T14:15:22;10.02;;;4.70;;
52854;SDS011;38719;51.418;7.286;2022-12-07T14:17:54;7.13;;;4.45;;
52854;SDS011;38719;51.418;7.286;2022-12-07T14:20:29;7.40;;;4.20;;
52854;SDS011;38719;51.418;7.286;2022-12-07T14:22:58;6.38;;;4.05;;
52854;SDS011;38719;51.418;7.286;2022-12-07T14:25:46;7.57;;;4.03;;
52854;SDS011;38719;51.418;7.286;2022-12-07T14:28:26;6.88;;;4.13;;
52854;SDS011;38719;51.418;7.286;2022-12-07T14:30:54;7.85;;;3.88;;
52854;SDS011;38719;51.418;7.286;2022-12-07T14:33:22;5.32;;;3.75;;
52854;SDS011;38719;51.418;7.286;2022-12-07T14:35:51;7.97;;;3.90;;
52854;SDS011;38719;51.418;7.286;2022-12-07T14:38:23;14.15;;;4.10;;
52854;SDS011;38719;51.418;7.286;2022-12-07T14:40:53;13.48;;;4.60;;
52854;SDS011;38719;51.418;7.286;2022-12-07T14:43:45;13.52;;;6.45;;
52854;SDS011;38719;51.418;7.286;2022-12-07T14:46:33;13.63;;;6.38;;
52854;SDS011;38719;51.418;7.286;2022-12-07T14:49:01;9.63;;;4.70;;
52854;SDS011;38719;51.418;7.286;2022-12-07T14:51:50;6.22;;;4.00;;
52854;SDS011;38719;51.418;7.286;2022-12-07T14:54:38;7.03;;;4.10;;
52854;SDS011;38719;51.418;7.286;2022-12-07T14:57:07;8.05;;;3.63;;
52854;SDS011;38719;51.418;7.286;2022-12-07T14:59:40;7.72;;;3.63;;
52854;SDS011;38719;51.418;7.286;2022-12-07T15:02:11;6.18;;;4.07;;
52854;SDS011;38719;51.418;7.286;2022-12-07T15:04:42;8.13;;;3.55;;
52854;SDS011;38719;51.418;7.286;2022-12-07T15:07:11;12.30;;;3.42;;
52854;SDS011;38719;51.418;7.286;2022-12-07T15:09:44;7.95;;;3.78;;
52854;SDS011;38719;51.418;7.286;2022-12-07T15:12:13;5.15;;;3.65;;
52854;SDS011;38719;51.418;7.286;2022-12-07T15:14:42;5.05;;;4.10;;
52854;SDS011;38719;51.418;7.286;2022-12-07T15:17:09;8.10;;;3.72;;
52854;SDS011;38719;51.418;7.286;2022-12-07T15:19:55;8.60;;;3.65;;